Price, UT

10:31 PM MDT on September 22, 2014 (GMT -0600)
Carbon County | Change Station
CLOSE
Current Station
Airport
Location: Price,
Elevation: 5955 ft
Nearby Weather Stations

Elev 5955 ft 39.61 °N, 110.75 °W | Updated 38 minutes ago

Overcast
Overcast
62 °F
Feels Like 62 °F
N
7
Wind Variable Wind from NNE

Today
High -- | Low -- °F
--% Chance of Precip.
Yesterday
High -- | Low -- °F
Precip. -- in
7:11 AM 7:20 PM
Waning Crescent, 1% visible
Pressure 30.07 in
Visibility 10.0 miles
Clouds Overcast 10000 ft
Dew Point 55 °F
Humidity 78%
Rainfall 0.03 in
Snow Depth 2 in , 1 in , 0 in
UV 0 out of 12
Pollen 4.30 out of 12
Air Quality Not available.
Flu Activity Not available.
METAR KPUC 230353Z AUTO 02006KT 10SM OVC100 17/13 A3021 RMK AO2 SLP182 T01670128

More Conditions Fewer Conditions

Pressure 30.07 in
Visibility 10.0 miles
Clouds Overcast 10000 ft
Dew Point 55 °F
Humidity 78%
Rainfall 0.03 in
Snow Depth 2 in , 1 in , 0 in
UV 0 out of 12
Pollen 4.30 out of 12
Air Quality Not available.
Flu Activity Not available.
METAR KPUC 230353Z AUTO 02006KT 10SM OVC100 17/13 A3021 RMK AO2 SLP182 T01670128

More Conditions Fewer Conditions

10-Day Weather Forecast

Almanac

Astronomy

Sep. 22, 2014 Rise Set
Actual Time 7:11 AM MDT 7:20 PM MDT
Civil Twilight 6:44 AM MDT 7:47 PM MDT
Nautical Twilight 6:13 AM MDT 8:18 PM MDT
Astronomical Twilight 5:41 AM MDT 8:50 PM MDT
Moon 5:43 AM MDT (9/22) 6:30 PM MDT (9/22)
Length of Visible Light 13h 02m
Length of Day
12h 09m
Tomorrow will be 2m 33s shorter.
Waning Crescent, 1% of the Moon is Illuminated
Sep 23
Waning Crescent
Sep 24
New
Oct 1
First Quarter
Oct 8
Full
Oct 15
Last Quarter

Today's Extremes

State Highs State Lows

Community

WunderPhotos

Upload Photos

1,755,612 photos uploaded!

Nearby

Snow Depth

Station Depth Elevation
Trial Lake 2 in 9960 ft
Mosby Mountain 1 in 9500 ft
Five Points Lake 0 in 10920 ft
Parrish Creek 0 in 7740 ft
Little Bear 0 in 6550 ft

Earthquake Activity

City Distance Mag. Time & Date
No recent earthquake activity has been reported nearby.
Minimum magnitude displayed is 2.5.

Coastal Water Temperatures

Place Temperature
No Stations Reporting

Nearby Weather Stations